Terminal Aerodrome Forecast
Issued by NWS Green Bay, WI

Home | Current Version | Previous Version | Text Only | Print | Product List | Glossary Off
Versions: 1 2 3 4 5 6 7 8 9 10 11 12 13 14 15 16 17 18 19 20 21 22 23 24 25 26 27 28 29 30 31 32

000
FTUS43 KGRB 160500
TAFGRB
TAF
KGRB 160520Z 1606/1706 VRB03KT P6SM BKN200
     FM160900 13005KT P6SM BKN120
     FM161500 13012G22KT 4SM -RASN SCT030 OVC050
     FM161800 14016G26KT P6SM SCT050 BKN100
     FM170200 12012G21KT P6SM BKN070 WS018/17050KT PROB30 1702/1706
      4SM -RASN BKN035=

USA.gov is the U.S. government's official web portal to all federal, state and local government web resources and services.